METAR LOCAUX

2020/10/25 23:00 LFST 252300Z AUTO VRB03KT 4500 RA BR BKN003/// BKN015/// BKN025/// ///TCU 11/10 Q1005 BECMG 9999 NSW BKN040
2020/10/25 22:50 EDSB 252250Z AUTO VRB02KT 7000 // FEW045/// BKN055/// OVC063/// 11/10 Q1004
2020/10/25 23:00 LFGA 252300Z AUTO VRB01KT 6000 +RA FEW005/// SCT010/// BKN045/// ///CB 12/11 Q1005
www.noaa.gov

Ne pas utiliser pour préparer ou effectuer un vol: Utilisez la documentation officielle disponible sur aviation.meteo.fr (Aéroweb)


"Le soleil du matin ne dure pas forcément toute la journée."

Animation satellite IR

Meteociel.fr

"Derrière chaque nuage se cache le ciel bleu."

Radar pluie

Infoclimat.fr

"Si tu veux l’arc-en-ciel, tu dois supporter la pluie."
Dolly Parton

Nébulosité (octas)

Meteociel.fr

"Le soleil est souvent obscurci par les nuages et la raison par les passions."
Démophile

Impacts de foudre

www.meteo60.fr

"Celui que frappe la foudre n'entend pas le tonnerre."

Vigilance météo

vigilance-meteo.fr

"Tout nuage n'enfante pas une tempête."
William Shakespeare

TAF locaux

2020/10/25 19:51 TAF AMD LFST 251943Z 2519/2618 17008KT 9999 BKN040 TEMPO 2519/2524 31012KT 3000 RA PROB40 TEMPO 2603/2610 -RA BKN006 PROB40 TEMPO 2612/2615 -SHRA FEW020TCU
2020/10/25 19:14 TAF AMD EDSB 251905Z 2519/2618 24005KT 9999 SCT045 TEMPO 2519/2611 RA PROB30 TEMPO 2602/2606 BKN010 BECMG 2609/2611 22010KT
www.noaa.gov

Ne pas utiliser pour préparer ou effectuer un vol: Utilisez la documentation officielle disponible sur aviation.meteo.fr (Aéroweb)


"Les jours où le ciel est gris, le soleil n'a pas disparu à tout jamais."
Arnaud Desjardins

Prévisions 7 jours


Meteoblue.com

"Quand les crapauds chantent, le beau temps s'avance !"